createdAt,value
2018-04-28T00:00:10.451Z,62.70
2018-04-28T00:02:38.024Z,62.70
2018-04-28T00:05:05.774Z,62.20
2018-04-28T00:07:33.322Z,62.20
2018-04-28T00:10:00.852Z,61.80
2018-04-28T00:12:28.396Z,62.50
2018-04-28T00:14:55.916Z,63.30
2018-04-28T00:17:23.443Z,62.60
2018-04-28T00:19:52.866Z,62.20
2018-04-28T00:22:25.749Z,62.60
2018-04-28T00:24:54.870Z,62.50
2018-04-28T00:27:24.945Z,62.40
2018-04-28T00:29:52.490Z,62.20
2018-04-28T00:32:20.007Z,62.00
2018-04-28T00:34:54.130Z,61.90
2018-04-28T00:37:23.521Z,61.90
2018-04-28T00:40:06.328Z,61.00
2018-04-28T00:42:34.605Z,62.00
2018-04-28T00:45:04.806Z,62.10
2018-04-28T00:47:32.333Z,62.10
2018-04-28T00:50:02.714Z,62.60
2018-04-28T00:52:30.244Z,62.50
2018-04-28T00:55:05.411Z,63.00
2018-04-28T00:57:58.629Z,63.60
2018-04-28T01:00:29.035Z,63.90
2018-04-28T01:02:57.321Z,65.50
2018-04-28T01:05:26.308Z,65.20
2018-04-28T01:07:55.698Z,64.30
2018-04-28T01:10:31.893Z,66.50
2018-04-28T01:12:59.411Z,66.40
2018-04-28T01:15:30.205Z,65.80
2018-04-28T01:21:02.643Z,66.70
2018-04-28T01:23:39.541Z,66.20
2018-04-28T01:26:21.909Z,66.10
2018-04-28T01:28:56.163Z,65.30
2018-04-28T01:31:23.684Z,65.30
2018-04-28T01:34:16.866Z,65.30
2018-04-28T01:36:48.082Z,66.10
2018-04-28T01:39:35.097Z,66.50
2018-04-28T01:42:24.796Z,67.60
2018-04-28T01:45:02.834Z,67.50
2018-04-28T01:47:31.090Z,67.80
2018-04-28T01:50:01.279Z,67.70
2018-04-28T01:52:45.226Z,69.10
2018-04-28T01:58:14.640Z,68.80
2018-04-28T02:00:46.868Z,69.00
2018-04-28T02:03:20.021Z,69.50
2018-04-28T02:05:52.500Z,70.30
2018-04-28T02:08:20.028Z,69.70
2018-04-28T02:10:54.456Z,70.40
2018-04-28T02:13:30.942Z,70.80
2018-04-28T02:16:19.188Z,70.90
2018-04-28T02:18:49.558Z,69.70
2018-04-28T02:21:24.904Z,69.70
2018-04-28T02:24:04.329Z,69.00
2018-04-28T02:26:47.669Z,70.90
2018-04-28T02:29:17.757Z,69.00
2018-04-28T02:31:54.777Z,69.00
2018-04-28T02:34:23.938Z,70.20
2018-04-28T02:36:54.135Z,70.10
2018-04-28T02:39:26.647Z,69.80
2018-04-28T02:41:59.911Z,69.80
2018-04-28T02:44:31.951Z,70.60
2018-04-28T02:47:20.105Z,70.50
2018-04-28T02:50:07.073Z,70.40
2018-04-28T02:52:44.247Z,71.40
2018-04-28T02:55:18.661Z,71.40
2018-04-28T02:57:54.552Z,71.40
2018-04-28T03:00:34.249Z,70.80
2018-04-28T03:03:04.599Z,72.00
2018-04-28T03:05:33.828Z,72.40
2018-04-28T03:08:07.252Z,72.40
2018-04-28T03:13:43.673Z,72.60
2018-04-28T03:16:12.765Z,73.60
2018-04-28T03:18:41.100Z,73.50
2018-04-28T03:21:09.484Z,72.90
2018-04-28T03:23:37.800Z,73.50
2018-04-28T03:26:18.970Z,73.60
2018-04-28T03:28:48.306Z,73.50
2018-04-28T03:31:28.268Z,73.80
2018-04-28T03:34:14.588Z,73.70
2018-04-28T03:36:42.119Z,73.20
2018-04-28T03:39:17.408Z,72.80
2018-04-28T03:41:50.854Z,73.60
2018-04-28T03:44:30.894Z,73.70
2018-04-28T03:50:32.810Z,72.10
2018-04-28T03:53:05.801Z,72.40
2018-04-28T03:55:34.079Z,72.70
2018-04-28T03:58:13.462Z,73.00
2018-04-28T04:00:52.805Z,73.40
2018-04-28T04:03:23.218Z,73.30
2018-04-28T04:06:00.710Z,73.70
2018-04-28T04:08:44.853Z,73.70
2018-04-28T04:11:30.326Z,75.30
2018-04-28T04:14:04.044Z,74.90
2018-04-28T04:16:40.113Z,74.80
2018-04-28T04:19:07.664Z,74.40
2018-04-28T04:21:51.663Z,74.30
2018-04-28T04:24:26.726Z,74.60
2018-04-28T04:26:57.940Z,75.10
2018-04-28T04:29:47.146Z,75.10
2018-04-28T04:32:15.542Z,75.40
2018-04-28T04:35:12.661Z,75.30
2018-04-28T04:37:48.016Z,75.70
2018-04-28T04:40:39.198Z,75.50
2018-04-28T04:43:13.414Z,75.70
2018-04-28T04:45:58.539Z,75.70
2018-04-28T04:48:51.485Z,76.00
2018-04-28T04:51:28.899Z,75.90
2018-04-28T04:54:12.046Z,75.50
2018-04-28T04:59:59.253Z,76.20
2018-04-28T05:02:42.419Z,75.90
2018-04-28T05:05:16.658Z,76.70
2018-04-28T05:08:02.253Z,75.70
2018-04-28T05:10:44.939Z,76.00
2018-04-28T05:13:42.217Z,76.00
2018-04-28T05:16:31.277Z,76.20
2018-04-28T05:19:19.366Z,75.50
2018-04-28T05:22:08.471Z,74.90
2018-04-28T05:24:42.770Z,75.60
2018-04-28T05:27:14.877Z,76.80
2018-04-28T05:30:11.807Z,76.00
2018-04-28T05:32:51.048Z,75.90
2018-04-28T05:38:39.964Z,76.50
2018-04-28T05:41:17.424Z,75.60
2018-04-28T05:44:02.077Z,76.60
2018-04-28T05:50:09.592Z,76.60
2018-04-28T05:52:53.695Z,75.40
2018-04-28T05:58:53.333Z,76.70
2018-04-28T06:01:33.471Z,76.00
2018-04-28T06:04:00.991Z,76.00
2018-04-28T06:06:41.343Z,74.20
2018-04-28T06:09:14.618Z,73.90
2018-04-28T06:12:03.606Z,73.70
2018-04-28T06:14:43.756Z,73.30
2018-04-28T06:17:23.173Z,73.20
2018-04-28T06:20:10.521Z,70.60
2018-04-28T06:22:37.990Z,71.90
2018-04-28T06:25:05.492Z,67.00
2018-04-28T06:27:33.006Z,65.70
2018-04-28T06:30:00.553Z,65.00
2018-04-28T06:32:28.087Z,66.80
2018-04-28T06:34:55.580Z,66.50
2018-04-28T06:37:23.119Z,63.20
2018-04-28T06:39:50.656Z,60.30
2018-04-28T06:42:19.013Z,65.20
2018-04-28T06:45:14.971Z,65.20
2018-04-28T06:47:42.515Z,62.20
2018-04-28T06:50:10.820Z,59.60
2018-04-28T06:52:38.332Z,59.60
2018-04-28T06:55:05.838Z,61.60
2018-04-28T06:57:34.152Z,59.60
2018-04-28T07:00:01.902Z,59.60
2018-04-28T07:02:29.468Z,60.00
2018-04-28T07:04:56.972Z,56.00
2018-04-28T07:07:24.590Z,56.10
2018-04-28T07:09:52.734Z,56.50
2018-04-28T07:12:20.534Z,57.90
2018-04-28T07:14:48.066Z,59.10
2018-04-28T07:17:15.609Z,57.00
2018-04-28T07:19:43.162Z,55.70
2018-04-28T07:22:10.684Z,57.20
2018-04-28T07:24:38.228Z,57.50
2018-04-28T07:27:06.530Z,54.90
2018-04-28T07:29:34.061Z,54.90
2018-04-28T07:32:01.591Z,54.50
2018-04-28T07:34:29.128Z,54.70
2018-04-28T07:36:56.714Z,55.10
2018-04-28T07:39:24.237Z,55.60
2018-04-28T07:41:52.555Z,53.80
2018-04-28T07:44:20.113Z,53.80
2018-04-28T07:46:47.641Z,52.60
2018-04-28T07:49:16.164Z,54.60
2018-04-28T07:51:43.738Z,54.60
2018-04-28T07:54:11.360Z,54.90
2018-04-28T07:56:38.812Z,52.50
2018-04-28T07:59:06.327Z,52.70
2018-04-28T08:01:33.864Z,53.30
2018-04-28T08:04:01.380Z,53.60
2018-04-28T08:06:28.915Z,53.60
2018-04-28T08:08:56.453Z,51.50
2018-04-28T08:11:23.988Z,54.10
2018-04-28T08:13:51.529Z,50.50
2018-04-28T08:16:19.097Z,51.60
2018-04-28T08:18:46.620Z,51.10
2018-04-28T08:21:14.180Z,49.90
2018-04-28T08:23:41.694Z,49.30
2018-04-28T08:26:09.259Z,50.70
2018-04-28T08:28:36.777Z,50.40
2018-04-28T08:31:04.323Z,50.90
2018-04-28T08:33:31.856Z,50.70
2018-04-28T08:35:59.399Z,50.90
2018-04-28T08:38:27.724Z,52.40
2018-04-28T08:40:55.256Z,52.40
2018-04-28T08:43:23.572Z,51.70
2018-04-28T08:45:51.089Z,51.70
2018-04-28T08:48:19.394Z,49.40
2018-04-28T08:50:46.932Z,49.40
2018-04-28T08:53:15.210Z,49.00
2018-04-28T08:55:42.740Z,48.90
2018-04-28T08:58:10.261Z,47.90
2018-04-28T09:00:57.400Z,48.60
2018-04-28T09:03:24.915Z,48.50
2018-04-28T09:05:53.183Z,48.10
2018-04-28T09:08:20.686Z,48.10
2018-04-28T09:10:48.258Z,49.50
2018-04-28T09:13:15.742Z,47.50
2018-04-28T09:15:43.246Z,48.90
2018-04-28T09:18:10.751Z,46.50
2018-04-28T09:20:38.277Z,46.50
2018-04-28T09:23:06.523Z,46.20
2018-04-28T09:25:34.039Z,46.70
2018-04-28T09:28:01.541Z,47.40
2018-04-28T09:30:29.048Z,46.90
2018-04-28T09:32:57.342Z,45.70
2018-04-28T09:35:25.580Z,44.80
2018-04-28T09:37:53.089Z,44.70
2018-04-28T09:40:20.599Z,47.50
2018-04-28T09:42:48.090Z,45.00
2018-04-28T09:45:16.359Z,44.00
2018-04-28T09:47:43.852Z,44.00
2018-04-28T09:50:11.363Z,44.30
2018-04-28T09:56:00.366Z,42.00
2018-04-28T09:58:28.237Z,41.90
2018-04-28T10:28:10.884Z,42.70
2018-04-28T10:30:39.155Z,41.90
2018-04-28T10:33:06.676Z,41.90
2018-04-28T10:35:34.170Z,42.90
2018-04-28T10:38:01.667Z,43.30
2018-04-28T10:40:29.173Z,43.10
2018-04-28T10:42:56.693Z,43.40
2018-04-28T10:45:24.981Z,42.90
2018-04-28T10:47:52.465Z,42.90
2018-04-28T10:50:19.993Z,43.90
2018-04-28T10:52:48.258Z,42.30
2018-04-28T10:55:15.746Z,42.30
2018-04-28T10:57:43.245Z,43.20
2018-04-28T11:00:10.735Z,43.60
2018-04-28T11:02:38.251Z,43.40
2018-04-28T11:05:05.751Z,43.90
2018-04-28T11:07:33.265Z,44.30
2018-04-28T11:10:01.023Z,44.20
2018-04-28T11:12:29.315Z,45.10
2018-04-28T11:14:56.827Z,45.10
2018-04-28T11:17:24.336Z,45.00
2018-04-28T11:19:51.918Z,44.00
2018-04-28T11:22:19.387Z,42.50
2018-04-28T11:24:46.896Z,42.50
2018-04-28T11:27:14.415Z,42.20
2018-04-28T11:29:41.941Z,41.90
2018-04-28T11:32:10.503Z,42.30
2018-04-28T11:34:38.236Z,42.30
2018-04-28T11:37:05.840Z,42.30
2018-04-28T11:39:34.178Z,44.20
2018-04-28T11:42:01.739Z,44.20
2018-04-28T11:44:29.284Z,42.70
2018-04-28T11:46:56.842Z,46.00
2018-04-28T11:49:24.376Z,43.40
2018-04-28T11:51:51.900Z,43.60
2018-04-28T12:01:12.721Z,45.00
2018-04-28T12:03:41.263Z,43.60
2018-04-28T12:06:08.903Z,43.60
2018-04-28T12:08:36.429Z,43.90
2018-04-28T12:11:04.816Z,44.40
2018-04-28T12:13:33.395Z,45.70
2018-04-28T12:16:01.727Z,45.00
2018-04-28T12:18:31.202Z,45.00
2018-04-28T12:20:58.762Z,44.00
2018-04-28T12:23:27.287Z,43.00
2018-04-28T12:25:54.956Z,43.00
2018-04-28T12:28:23.411Z,45.20
2018-04-28T12:30:51.942Z,45.10
2018-04-28T12:33:19.589Z,43.40
2018-04-28T12:35:47.339Z,43.00
2018-04-28T12:38:14.997Z,43.00
2018-04-28T12:40:42.717Z,45.60
2018-04-28T12:43:10.237Z,45.00
2018-04-28T12:45:37.935Z,45.20
2018-04-28T12:48:05.547Z,43.90
2018-04-28T12:50:33.968Z,48.30
2018-04-28T12:53:01.634Z,48.10
2018-04-28T12:55:29.819Z,43.50
2018-04-28T12:57:58.305Z,44.10
2018-04-28T13:00:25.827Z,46.90
2018-04-28T13:02:54.110Z,42.60
2018-04-28T13:05:22.375Z,43.90
2018-04-28T13:07:50.657Z,44.10
2018-04-28T13:10:18.230Z,44.10
2018-04-28T13:12:46.569Z,43.50
2018-04-28T13:15:14.081Z,43.50
2018-04-28T13:17:42.343Z,41.60
2018-04-28T13:20:09.848Z,41.60
2018-04-28T13:22:37.351Z,41.50
2018-04-28T13:25:04.855Z,42.40
2018-04-28T13:27:33.173Z,43.40
2018-04-28T13:30:00.675Z,43.40
2018-04-28T13:32:29.378Z,43.20
2018-04-28T13:34:57.658Z,43.10
2018-04-28T13:37:25.951Z,45.10
2018-04-28T13:39:53.482Z,45.10
2018-04-28T13:42:20.980Z,44.80
2018-04-28T13:44:49.287Z,41.30
2018-04-28T13:47:16.783Z,41.10
2018-04-28T13:49:44.286Z,42.00
2018-04-28T13:52:11.789Z,44.50
2018-04-28T13:54:39.297Z,46.00
2018-04-28T13:57:06.830Z,45.30
2018-04-28T13:59:34.337Z,42.50
2018-04-28T14:02:02.604Z,40.70
2018-04-28T14:04:30.899Z,40.20
2018-04-28T14:06:59.175Z,39.10
2018-04-28T14:09:27.463Z,34.00
2018-04-28T14:11:54.978Z,34.00
2018-04-28T14:14:22.470Z,36.10
2018-04-28T14:16:50.733Z,43.00
2018-04-28T14:19:18.243Z,43.00
2018-04-28T14:21:45.771Z,44.50
2018-04-28T14:24:13.277Z,43.00
2018-04-28T14:26:40.815Z,43.50
2018-04-28T14:29:08.332Z,45.20
2018-04-28T14:31:35.849Z,45.60
2018-04-28T14:34:04.143Z,42.10
2018-04-28T14:36:31.651Z,42.00
2018-04-28T14:38:59.155Z,38.80
2018-04-28T14:41:26.667Z,43.90
2018-04-28T14:43:54.187Z,38.50
2018-04-28T14:46:21.707Z,34.30
2018-04-28T14:48:49.199Z,32.20
2018-04-28T14:51:17.445Z,30.70
2018-04-28T14:53:44.948Z,30.70
2018-04-28T14:56:13.193Z,28.60
2018-04-28T14:58:40.699Z,28.60
2018-04-28T15:01:08.235Z,26.60
2018-04-28T15:03:35.779Z,26.30
2018-04-28T15:06:03.303Z,28.00
2018-04-28T15:08:30.805Z,27.50
2018-04-28T15:10:58.337Z,27.70
2018-04-28T15:13:25.831Z,26.60
2018-04-28T15:15:53.323Z,26.90
2018-04-28T15:18:20.827Z,26.30
2018-04-28T15:20:48.313Z,27.70
2018-04-28T15:23:15.857Z,26.20
2018-04-28T15:25:43.359Z,26.90
2018-04-28T15:28:11.641Z,28.70
2018-04-28T15:30:39.169Z,28.60
2018-04-28T15:33:06.671Z,28.70
2018-04-28T15:35:34.192Z,31.30
2018-04-28T15:38:01.702Z,31.60
2018-04-28T15:40:29.193Z,30.80
2018-04-28T15:42:56.705Z,33.20
2018-04-28T15:45:24.219Z,33.00
2018-04-28T15:47:51.758Z,32.50
2018-04-28T15:50:20.037Z,34.10
2018-04-28T15:52:47.592Z,34.10
2018-04-28T15:55:15.167Z,33.80
2018-04-28T15:57:42.617Z,34.30
2018-04-28T16:00:10.136Z,35.30
2018-04-28T16:02:37.671Z,35.90
2018-04-28T16:05:05.902Z,36.90
2018-04-28T16:07:33.396Z,36.90
2018-04-28T16:10:00.889Z,36.10
2018-04-28T16:12:28.387Z,35.00
2018-04-28T16:14:55.934Z,32.90
2018-04-28T16:17:23.384Z,32.50
2018-04-28T16:19:50.888Z,34.10
2018-04-28T16:22:18.385Z,34.10
2018-04-28T16:24:46.643Z,34.60
2018-04-28T16:27:14.207Z,34.60
2018-04-28T16:29:41.647Z,35.20
2018-04-28T16:32:09.183Z,35.60
2018-04-28T16:34:36.675Z,33.60
2018-04-28T16:37:04.227Z,33.10
2018-04-28T16:39:31.718Z,33.40
2018-04-28T16:41:59.223Z,33.10
2018-04-28T16:44:26.737Z,34.80
2018-04-28T16:46:54.254Z,34.70
2018-04-28T16:49:22.517Z,34.80
2018-04-28T16:51:50.770Z,35.20
2018-04-28T16:54:18.298Z,35.20
2018-04-28T16:56:45.834Z,36.30
2018-04-28T16:59:13.312Z,34.40
2018-04-28T17:01:40.832Z,34.80
2018-04-28T17:04:09.112Z,35.10
2018-04-28T17:06:37.418Z,35.00
2018-04-28T17:09:04.949Z,35.00
2018-04-28T17:11:32.462Z,36.40
2018-04-28T17:13:59.971Z,35.50
2018-04-28T17:16:27.475Z,35.90
2018-04-28T17:18:54.976Z,36.00
2018-04-28T17:21:22.495Z,35.50
2018-04-28T17:23:50.035Z,35.10
2018-04-28T17:26:18.306Z,34.90
2018-04-28T17:28:45.805Z,34.90
2018-04-28T17:31:13.316Z,34.80
2018-04-28T17:33:40.838Z,35.20
2018-04-28T17:36:08.322Z,34.90
2018-04-28T17:38:35.819Z,34.70
2018-04-28T17:41:03.352Z,35.00
2018-04-28T17:43:30.868Z,35.00
2018-04-28T17:45:59.204Z,37.10
2018-04-28T17:48:26.703Z,37.10
2018-04-28T17:50:54.973Z,37.60
2018-04-28T17:53:22.474Z,37.60
2018-04-28T17:55:49.951Z,37.30
2018-04-28T17:58:17.448Z,38.30
2018-04-28T18:00:44.942Z,38.50
2018-04-28T18:03:13.335Z,38.10
2018-04-28T18:05:40.866Z,38.00
2018-04-28T18:08:08.364Z,38.50
2018-04-28T18:10:36.652Z,38.90
2018-04-28T18:13:04.145Z,38.90
2018-04-28T18:15:31.653Z,38.50
2018-04-28T18:17:59.915Z,38.50
2018-04-28T18:20:27.419Z,38.50
2018-04-28T18:22:54.931Z,38.70
2018-04-28T18:25:22.417Z,38.60
2018-04-28T18:27:49.904Z,38.70
2018-04-28T18:30:18.168Z,37.30
2018-04-28T18:32:46.434Z,37.60
2018-04-28T18:35:13.950Z,37.60
2018-04-28T18:37:41.474Z,37.70
2018-04-28T18:40:08.974Z,37.30
2018-04-28T18:42:36.470Z,37.60
2018-04-28T18:45:03.994Z,37.70
2018-04-28T18:47:31.501Z,36.80
2018-04-28T18:49:58.996Z,38.30
2018-04-28T18:52:27.264Z,37.50
2018-04-28T18:54:55.549Z,37.60
2018-04-28T18:57:23.824Z,37.30
2018-04-28T18:59:52.096Z,37.10
2018-04-28T19:02:19.592Z,37.00
2018-04-28T19:04:47.106Z,36.60
2018-04-28T19:07:14.600Z,36.60
2018-04-28T19:09:42.852Z,36.80
2018-04-28T19:12:10.360Z,36.20
2018-04-28T19:14:37.864Z,35.90
2018-04-28T19:17:05.388Z,36.50
2018-04-28T19:19:32.902Z,36.60
2018-04-28T19:22:00.418Z,36.80
2018-04-28T19:24:27.935Z,36.90
2018-04-28T19:26:55.429Z,36.40
2018-04-28T19:29:23.710Z,36.30
2018-04-28T19:31:51.972Z,36.60
2018-04-28T19:34:19.464Z,36.60
2018-04-28T19:36:46.980Z,36.30
2018-04-28T19:39:14.501Z,36.10
2018-04-28T19:41:41.999Z,36.30
2018-04-28T19:44:09.511Z,35.90
2018-04-28T19:46:37.754Z,36.60
2018-04-28T19:49:05.272Z,36.50
2018-04-28T19:51:32.771Z,37.10
2018-04-28T19:54:00.268Z,37.30
2018-04-28T19:56:28.541Z,36.50
2018-04-28T19:58:56.811Z,37.30
2018-04-28T20:01:24.337Z,37.20
2018-04-28T20:03:51.853Z,37.00
2018-04-28T20:06:20.106Z,36.90
2018-04-28T20:08:47.609Z,36.90
2018-04-28T20:11:15.089Z,37.10
2018-04-28T20:13:42.604Z,37.00
2018-04-28T20:16:10.113Z,37.10
2018-04-28T20:18:37.602Z,37.30
2018-04-28T20:21:05.873Z,37.80
2018-04-28T20:23:45.194Z,37.60
2018-04-28T20:26:12.701Z,37.60
2018-04-28T20:28:40.185Z,37.20
2018-04-28T20:31:08.466Z,37.50
2018-04-28T20:33:36.735Z,37.90
2018-04-28T20:36:04.262Z,37.80
2018-04-28T20:38:31.746Z,38.70
2018-04-28T20:40:59.244Z,37.70
2018-04-28T20:43:27.529Z,38.50
2018-04-28T20:45:55.024Z,38.50
2018-04-28T20:48:22.522Z,38.80
2018-04-28T20:50:50.022Z,38.60
2018-04-28T20:53:17.540Z,38.30
2018-04-28T20:55:45.052Z,38.30
2018-04-28T20:58:12.536Z,38.50
2018-04-28T21:00:40.040Z,39.10
2018-04-28T21:03:07.523Z,39.20
2018-04-28T21:05:35.790Z,39.60
2018-04-28T21:08:04.058Z,38.90
2018-04-28T21:10:31.551Z,38.80
2018-04-28T21:12:59.807Z,38.50
2018-04-28T21:15:27.312Z,38.50
2018-04-28T21:17:54.805Z,39.20
2018-04-28T21:20:22.296Z,39.30
2018-04-28T21:22:49.811Z,39.80
2018-04-28T21:25:17.316Z,39.60
2018-04-28T21:27:44.806Z,38.90
2018-04-28T21:30:13.084Z,38.90
2018-04-28T21:32:41.361Z,38.20
2018-04-28T21:35:08.856Z,38.20
2018-04-28T21:37:36.351Z,38.00
2018-04-28T21:40:03.857Z,37.90
2018-04-28T21:42:31.352Z,38.00
2018-04-28T21:44:58.866Z,37.80
2018-04-28T21:47:27.138Z,37.60
2018-04-28T21:49:54.630Z,37.60
2018-04-28T21:52:22.145Z,36.60
2018-04-28T21:54:49.649Z,36.30
2018-04-28T21:57:17.915Z,37.20
2018-04-28T21:59:46.172Z,37.00
2018-04-28T22:02:13.669Z,37.00
2018-04-28T22:04:41.949Z,38.30
2018-04-28T22:07:10.209Z,38.80
2018-04-28T22:09:37.705Z,38.70
2018-04-28T22:12:05.215Z,38.10
2018-04-28T22:14:32.709Z,36.80
2018-04-28T22:17:00.985Z,37.20
2018-04-28T22:19:28.473Z,37.20
2018-04-28T22:21:55.979Z,37.10
2018-04-28T22:24:23.491Z,36.20
2018-04-28T22:26:51.745Z,35.80
2018-04-28T22:29:19.281Z,35.80
2018-04-28T22:31:46.778Z,36.00
2018-04-28T22:34:15.384Z,36.40
2018-04-28T22:36:43.646Z,35.60
2018-04-28T22:39:11.134Z,35.50
2018-04-28T22:41:38.624Z,36.40
2018-04-28T22:44:06.119Z,35.60
2018-04-28T22:46:33.609Z,35.20
2018-04-28T22:49:01.861Z,34.90
2018-04-28T22:51:29.366Z,35.00
2018-04-28T22:53:56.872Z,35.50
2018-04-28T22:56:24.368Z,35.00
2018-04-28T22:58:51.862Z,34.50
2018-04-28T23:01:19.354Z,35.40
2018-04-28T23:03:46.857Z,35.40
2018-04-28T23:06:14.361Z,34.70
2018-04-28T23:08:41.872Z,34.50
2018-04-28T23:11:09.364Z,35.30
2018-04-28T23:13:37.625Z,36.30
2018-04-28T23:16:05.108Z,36.20
2018-04-28T23:18:33.360Z,36.00
2018-04-28T23:21:00.860Z,36.00
2018-04-28T23:23:28.352Z,35.60
2018-04-28T23:25:55.841Z,35.60
2018-04-28T23:28:23.345Z,35.60
2018-04-28T23:30:50.832Z,35.70
2018-04-28T23:33:18.322Z,35.80
2018-04-28T23:35:45.828Z,35.20
2018-04-28T23:38:14.105Z,36.70
2018-04-28T23:40:42.368Z,35.50
2018-04-28T23:43:09.880Z,35.40
2018-04-28T23:45:37.379Z,35.30
2018-04-28T23:48:04.905Z,35.50
2018-04-28T23:50:32.377Z,35.40
2018-04-28T23:52:59.875Z,36.00
2018-04-28T23:55:27.365Z,36.50
2018-04-28T23:57:55.609Z,37.60
